Řízení letového provozu České republiky
Letiste: LKKV Aktualizace: 20.10.2018 23:10:06  UTC
 METAR LKKV 20.10. 23:00 ...
METAR LKKV 202300Z 27002KT 9999 FEW033 BKN043 06/03 Q1028 RMK REG QNH 1023=
 TAF LKKV 20.10. 23:00 ...
TAF LKKV 202300Z 2100/2206 VRB02KT 9999 BKN035      TEMPO 2102/2109 4000 BR BKN009      TEMPO 2122/2206 4000 BR BKN005=